F\v Tenia — FPMH — position and weather

sailwx.info

Track history (hours):
 
Tides and Currents Weather Stations Pressure Air Temp Water Temp Dewpoint Dewpoint Depression Visibility Wind Speed Wind Dir Waves Ship Positions

F\v Tenia

Last reported at 2017-Jun-24 21:12 UTC. Time now 2017-Jun-26 02:08 UTC.
Position N 50°48' W 011°08'.

Length 22 m; draft 4 m.

Type: Fishing. MMSI: 227575000.

Date/timePositionNaut miles runAvg speedWind from/ knotsBaromVisibWave heightAir tempDewpointWater temp
2017-Jun-24 21:12N 50°48' W 011°08'1 0.3
2017-Jun-24 16:16N 50°47' W 011°09'0 0.2
2017-Jun-24 16:00N 50°47' W 011°09'1 0.4
2017-Jun-24 13:57N 50°47' W 011°08'1 0.8
2017-Jun-24 13:06N 50°47' W 011°07'0 0.8
2017-Jun-24 12:52N 50°48' W 011°06'1 0.4
2017-Jun-24 09:53N 50°48' W 011°09'2 1.8
2017-Jun-24 08:35N 50°46' W 011°06'37 2.3
2017-Jun-23 16:41N 51°14' W 010°29'11 7.3
2017-Jun-23 15:13N 51°23' W 010°19'2 7.3
2017-Jun-23 15:00N 51°24' W 010°17'7 7.1
2017-Jun-23 13:59N 51°29' W 010°09'3 7.3
2017-Jun-23 13:30N 51°31' W 010°05'5 7.4
2017-Jun-23 12:53N 51°34' W 009°59'3 7.6
2017-Jun-23 12:30N 51°36' W 009°56'3 5.3
2017-Jun-23 11:58N 51°39' W 009°54'0 0.0
2017-Jun-23 11:28N 51°39' W 009°54'0 0.3
2017-Jun-23 10:51N 51°39' W 009°54'0 0.0
2017-Jun-23 10:27N 51°39' W 009°54'0 0.0
2017-Jun-23 09:57N 51°39' W 009°54'0 0.0
2017-Jun-23 09:30N 51°39' W 009°54'0 0.0
2017-Jun-23 08:53N 51°39' W 009°54'0 0.0
2017-Jun-23 08:22N 51°39' W 009°54'0 0.0
2017-Jun-23 07:57N 51°39' W 009°54'0 0.0
2017-Jun-23 07:30N 51°39' W 009°54'0 0.0
2017-Jun-23 06:57N 51°39' W 009°54'0 0.0
2017-Jun-23 06:30N 51°39' W 009°54'0 0.0
2017-Jun-23 06:00N 51°39' W 009°54'3 4.3
2017-Jun-23 05:21N 51°36' W 009°56'3 8.5
2017-Jun-23 05:01N 51°35' W 009°60'5 9.1
2017-Jun-23 04:25N 51°33' W 010°08'5 9.4
2017-Jun-23 03:54N 51°31' W 010°15'33 3.3
2017-Jun-22 17:53N 51°20' W 011°06'1 0.2
2017-Jun-22 10:42N 51°20' W 011°08'0 0.6
2017-Jun-22 10:30N 51°20' W 011°08'1 1.6
2017-Jun-22 10:00N 51°20' W 011°08'0 0.4
2017-Jun-22 09:30N 51°20' W 011°09'0 0.3
2017-Jun-22 08:59N 51°20' W 011°09'0 0.4
2017-Jun-22 08:09N 51°20' W 011°09'0 0.5
2017-Jun-22 07:49N 51°20' W 011°09'2 1.3
2017-Jun-22 06:25N 51°19' W 011°09'0 0.8
2017-Jun-22 06:00N 51°19' W 011°10'1 0.9
2017-Jun-22 05:26N 51°19' W 011°10'0 0.9
2017-Jun-22 05:00N 51°20' W 011°10'8 0.6
2017-Jun-21 16:03N 51°28' W 011°11'0 1.1
2017-Jun-21 15:51N 51°28' W 011°11'0 1.0
2017-Jun-21 15:28N 51°27' W 011°11'1 0.9
2017-Jun-21 14:34N 51°27' W 011°12'0 1.0
2017-Jun-21 14:24N 51°26' W 011°12'1 0.8
2017-Jun-21 13:02N 51°26' W 011°13'0 0.9
2017-Jun-21 12:59N 51°26' W 011°13'1 0.8
2017-Jun-21 12:18N 51°25' W 011°13'0 1.0
2017-Jun-21 12:00N 51°25' W 011°14'  
2017-Jun-18 13:24N 51°38' W 011°10'3 0.3
2017-Jun-18 02:43N 51°35' W 011°10'15 4.1
2017-Jun-17 23:10N 51°20' W 011°09'0 0.3
2017-Jun-17 21:47N 51°20' W 011°09'0 0.8
2017-Jun-17 21:22N 51°19' W 011°09'0 0.7
2017-Jun-17 20:53N 51°19' W 011°09'0 0.6
2017-Jun-17 20:28N 51°19' W 011°09'0 0.9
2017-Jun-17 19:56N 51°18' W 011°09'1 0.6
2017-Jun-17 18:54N 51°19' W 011°08'3 0.8
2017-Jun-17 15:34N 51°21' W 011°09'1 0.2
2017-Jun-17 10:51N 51°20' W 011°09'1 1.8
2017-Jun-17 10:18N 51°20' W 011°09'1 2.2
2017-Jun-17 09:57N 51°19' W 011°09'3 2.2
2017-Jun-17 08:32N 51°22' W 011°10'0 0.6
2017-Jun-17 08:31N 51°22' W 011°10'1 0.6
2017-Jun-17 06:12N 51°21' W 011°10'0 0.4
2017-Jun-17 06:00N 51°20' W 011°10'0 0.4
2017-Jun-17 05:30N 51°20' W 011°10'0 0.3
2017-Jun-17 04:55N 51°20' W 011°10'0 0.1
2017-Jun-17 04:17N 51°20' W 011°10'0 0.1
2017-Jun-17 04:00N 51°20' W 011°10'0 0.1
2017-Jun-17 03:30N 51°20' W 011°10'0 0.3
2017-Jun-17 02:54N 51°20' W 011°10'1 1.4
2017-Jun-17 02:04N 51°21' W 011°08'2 6.9
2017-Jun-17 01:44N 51°19' W 011°07'1 1.7
2017-Jun-17 01:19N 51°19' W 011°08'3 6.8
2017-Jun-17 00:55N 51°22' W 011°10'3 6.3
2017-Jun-17 00:26N 51°19' W 011°09'1 2.5
2017-Jun-17 00:00N 51°18' W 011°08'0 0.6
2017-Jun-16 23:26N 51°18' W 011°08'0 0.8
2017-Jun-16 23:01N 51°18' W 011°09'0 0.8
2017-Jun-16 22:27N 51°19' W 011°09'3 1.7
2017-Jun-16 20:48N 51°20' W 011°06'20 4.7
2017-Jun-16 16:33N 51°23' W 010°35'1 7.9
2017-Jun-16 16:29N 51°23' W 010°34'4 7.8
2017-Jun-16 15:59N 51°23' W 010°28'4 7.9
2017-Jun-16 15:30N 51°23' W 010°21'4 7.4
2017-Jun-16 15:00N 51°24' W 010°16'4 8.0
2017-Jun-16 14:29N 51°27' W 010°11'8 8.2
2017-Jun-16 13:30N 51°33' W 010°02'4 8.2
2017-Jun-16 13:00N 51°36' W 009°57'4 7.0
2017-Jun-16 12:28N 51°39' W 009°54'0 0.0
2017-Jun-16 11:53N 51°39' W 009°54'0 0.4
2017-Jun-16 11:27N 51°39' W 009°54'0 0.0
2017-Jun-16 10:57N 51°39' W 009°54'0 0.1
2017-Jun-16 10:29N 51°39' W 009°54'0 0.0
2017-Jun-16 09:42N 51°39' W 009°54'0 0.0
2017-Jun-16 09:28N 51°39' W 009°54'0 0.0
2017-Jun-16 09:00N 51°39' W 009°54'0 0.0
2017-Jun-16 08:28N 51°39' W 009°54'0 0.0
2017-Jun-16 07:59N 51°39' W 009°54'0 0.0
2017-Jun-16 07:30N 51°39' W 009°54'2 3.4
2017-Jun-16 06:56N 51°37' W 009°55'1 1.5
2017-Jun-16 06:29N 51°36' W 009°56'2 4.4
2017-Jun-16 06:00N 51°35' W 009°58'4 8.3
2017-Jun-16 05:31N 51°32' W 010°03'4 8.2
2017-Jun-16 05:00N 51°29' W 010°07'4 8.3
2017-Jun-16 04:30N 51°26' W 010°12'4 8.2
2017-Jun-16 04:00N 51°23' W 010°17'4 8.1
2017-Jun-16 03:28N 51°21' W 010°22'4 8.2
2017-Jun-16 03:00N 51°18' W 010°26'4 8.1
2017-Jun-16 02:30N 51°15' W 010°31'  
Track history (hours):
 
Tides and Currents Weather Stations Pressure Air Temp Water Temp Dewpoint Dewpoint Depression Visibility Wind Speed Wind Dir Waves Ship Positions

F\v Tenia

Last reported at 2017-Jun-24 21:12 UTC. Time now 2017-Jun-26 02:08 UTC.
Position N 50°48' W 011°08'.

Length 22 m; draft 4 m.

Type: Fishing. MMSI: 227575000.

Date/timePositionNaut miles runAvg speedWind from/ knotsBaromVisibWave heightAir tempDewpointWater temp
2017-Jun-24 21:12N 50°48' W 011°08'1 0.3
2017-Jun-24 16:16N 50°47' W 011°09'0 0.2
2017-Jun-24 16:00N 50°47' W 011°09'1 0.4
2017-Jun-24 13:57N 50°47' W 011°08'1 0.8
2017-Jun-24 13:06N 50°47' W 011°07'0 0.8
2017-Jun-24 12:52N 50°48' W 011°06'1 0.4
2017-Jun-24 09:53N 50°48' W 011°09'2 1.8
2017-Jun-24 08:35N 50°46' W 011°06'37 2.3
2017-Jun-23 16:41N 51°14' W 010°29'11 7.3
2017-Jun-23 15:13N 51°23' W 010°19'2 7.3
2017-Jun-23 15:00N 51°24' W 010°17'7 7.1
2017-Jun-23 13:59N 51°29' W 010°09'3 7.3
2017-Jun-23 13:30N 51°31' W 010°05'5 7.4
2017-Jun-23 12:53N 51°34' W 009°59'3 7.6
2017-Jun-23 12:30N 51°36' W 009°56'3 5.3
2017-Jun-23 11:58N 51°39' W 009°54'0 0.0
2017-Jun-23 11:28N 51°39' W 009°54'0 0.3
2017-Jun-23 10:51N 51°39' W 009°54'0 0.0
2017-Jun-23 10:27N 51°39' W 009°54'0 0.0
2017-Jun-23 09:57N 51°39' W 009°54'0 0.0
2017-Jun-23 09:30N 51°39' W 009°54'0 0.0
2017-Jun-23 08:53N 51°39' W 009°54'0 0.0
2017-Jun-23 08:22N 51°39' W 009°54'0 0.0
2017-Jun-23 07:57N 51°39' W 009°54'0 0.0
2017-Jun-23 07:30N 51°39' W 009°54'0 0.0
2017-Jun-23 06:57N 51°39' W 009°54'0 0.0
2017-Jun-23 06:30N 51°39' W 009°54'0 0.0
2017-Jun-23 06:00N 51°39' W 009°54'3 4.3
2017-Jun-23 05:21N 51°36' W 009°56'3 8.5
2017-Jun-23 05:01N 51°35' W 009°60'5 9.1
2017-Jun-23 04:25N 51°33' W 010°08'5 9.4
2017-Jun-23 03:54N 51°31' W 010°15'33 3.3
2017-Jun-22 17:53N 51°20' W 011°06'1 0.2
2017-Jun-22 10:42N 51°20' W 011°08'0 0.6
2017-Jun-22 10:30N 51°20' W 011°08'1 1.6
2017-Jun-22 10:00N 51°20' W 011°08'0 0.4
2017-Jun-22 09:30N 51°20' W 011°09'0 0.3
2017-Jun-22 08:59N 51°20' W 011°09'0 0.4
2017-Jun-22 08:09N 51°20' W 011°09'0 0.5
2017-Jun-22 07:49N 51°20' W 011°09'2 1.3
2017-Jun-22 06:25N 51°19' W 011°09'0 0.8
2017-Jun-22 06:00N 51°19' W 011°10'1 0.9
2017-Jun-22 05:26N 51°19' W 011°10'0 0.9
2017-Jun-22 05:00N 51°20' W 011°10'8 0.6
2017-Jun-21 16:03N 51°28' W 011°11'0 1.1
2017-Jun-21 15:51N 51°28' W 011°11'0 1.0
2017-Jun-21 15:28N 51°27' W 011°11'1 0.9
2017-Jun-21 14:34N 51°27' W 011°12'0 1.0
2017-Jun-21 14:24N 51°26' W 011°12'1 0.8
2017-Jun-21 13:02N 51°26' W 011°13'0 0.9
2017-Jun-21 12:59N 51°26' W 011°13'1 0.8
2017-Jun-21 12:18N 51°25' W 011°13'0 1.0
2017-Jun-21 12:00N 51°25' W 011°14'  
2017-Jun-18 13:24N 51°38' W 011°10'3 0.3
2017-Jun-18 02:43N 51°35' W 011°10'15 4.1
2017-Jun-17 23:10N 51°20' W 011°09'0 0.3
2017-Jun-17 21:47N 51°20' W 011°09'0 0.8
2017-Jun-17 21:22N 51°19' W 011°09'0 0.7
2017-Jun-17 20:53N 51°19' W 011°09'0 0.6
2017-Jun-17 20:28N 51°19' W 011°09'0 0.9
2017-Jun-17 19:56N 51°18' W 011°09'1 0.6
2017-Jun-17 18:54N 51°19' W 011°08'3 0.8
2017-Jun-17 15:34N 51°21' W 011°09'1 0.2
2017-Jun-17 10:51N 51°20' W 011°09'1 1.8
2017-Jun-17 10:18N 51°20' W 011°09'1 2.2
2017-Jun-17 09:57N 51°19' W 011°09'3 2.2
2017-Jun-17 08:32N 51°22' W 011°10'0 0.6
2017-Jun-17 08:31N 51°22' W 011°10'1 0.6
2017-Jun-17 06:12N 51°21' W 011°10'0 0.4
2017-Jun-17 06:00N 51°20' W 011°10'0 0.4
2017-Jun-17 05:30N 51°20' W 011°10'0 0.3
2017-Jun-17 04:55N 51°20' W 011°10'0 0.1
2017-Jun-17 04:17N 51°20' W 011°10'0 0.1
2017-Jun-17 04:00N 51°20' W 011°10'0 0.1
2017-Jun-17 03:30N 51°20' W 011°10'0 0.3
2017-Jun-17 02:54N 51°20' W 011°10'1 1.4
2017-Jun-17 02:04N 51°21' W 011°08'2 6.9
2017-Jun-17 01:44N 51°19' W 011°07'1 1.7
2017-Jun-17 01:19N 51°19' W 011°08'3 6.8
2017-Jun-17 00:55N 51°22' W 011°10'3 6.3
2017-Jun-17 00:26N 51°19' W 011°09'1 2.5
2017-Jun-17 00:00N 51°18' W 011°08'0 0.6
2017-Jun-16 23:26N 51°18' W 011°08'0 0.8
2017-Jun-16 23:01N 51°18' W 011°09'0 0.8
2017-Jun-16 22:27N 51°19' W 011°09'3 1.7
2017-Jun-16 20:48N 51°20' W 011°06'20 4.7
2017-Jun-16 16:33N 51°23' W 010°35'1 7.9
2017-Jun-16 16:29N 51°23' W 010°34'4 7.8
2017-Jun-16 15:59N 51°23' W 010°28'4 7.9
2017-Jun-16 15:30N 51°23' W 010°21'4 7.4
2017-Jun-16 15:00N 51°24' W 010°16'4 8.0
2017-Jun-16 14:29N 51°27' W 010°11'8 8.2
2017-Jun-16 13:30N 51°33' W 010°02'4 8.2
2017-Jun-16 13:00N 51°36' W 009°57'4 7.0
2017-Jun-16 12:28N 51°39' W 009°54'0 0.0
2017-Jun-16 11:53N 51°39' W 009°54'0 0.4
2017-Jun-16 11:27N 51°39' W 009°54'0 0.0
2017-Jun-16 10:57N 51°39' W 009°54'0 0.1
2017-Jun-16 10:29N 51°39' W 009°54'0 0.0
2017-Jun-16 09:42N 51°39' W 009°54'0 0.0
2017-Jun-16 09:28N 51°39' W 009°54'0 0.0
2017-Jun-16 09:00N 51°39' W 009°54'0 0.0
2017-Jun-16 08:28N 51°39' W 009°54'0 0.0
2017-Jun-16 07:59N 51°39' W 009°54'0 0.0
2017-Jun-16 07:30N 51°39' W 009°54'2 3.4
2017-Jun-16 06:56N 51°37' W 009°55'1 1.5
2017-Jun-16 06:29N 51°36' W 009°56'2 4.4
2017-Jun-16 06:00N 51°35' W 009°58'4 8.3
2017-Jun-16 05:31N 51°32' W 010°03'4 8.2
2017-Jun-16 05:00N 51°29' W 010°07'4 8.3
2017-Jun-16 04:30N 51°26' W 010°12'4 8.2
2017-Jun-16 04:00N 51°23' W 010°17'4 8.1
2017-Jun-16 03:28N 51°21' W 010°22'4 8.2
2017-Jun-16 03:00N 51°18' W 010°26'4 8.1
2017-Jun-16 02:30N 51°15' W 010°31'  

Dump ship's entire track history